Piarco FIR Weather

TAPA 240500Z VRB02KT 9999 FEW020 22/21 Q1016 NOSIG

TBPB 240500Z 10012KT 9999 FEW020 26/23 Q1014 NOSIG

TDPD 240100Z 28004KT 9999 FEW019 22/21 Q1016

TFFF 240530Z AUTO VRB03KT 9999 BKN018/// BKN023/// BKN038/// ///TCU 25/23 Q1014

TFFR 240530Z AUTO 00000KT 9999 SCT018 22/21 Q1014

TGPY 240500Z 09009KT 9999 FEW018 SCT035 26/24 Q1013 NOSIG

TKPK 240200Z 00000KT CAVOK 20/17 Q1016

TKPN 232200Z 00000KT 9999 FEW020 26/20 Q1014

TLPC 240000Z 09004KT 9999 -SHRA SCT022 BKN040 26/23 Q1014 NOSIG

TLPL 240500Z 03006KT 8000 -SHRA SCT014 BKN038 24/22 Q1014 NOSIG

TTCP 240500Z 00000KT 9999 FEW016 BKN038 25/22 Q1013 NOSIG

TTPP 240500Z 12003KT 9999 FEW016 25/23 Q1013 NOSIG

TVSV 132043Z 12005G18KT 4000 SHRA BKN014 27/23 Q1010